createdAt,value
2018-07-30T00:00:47.409Z,63.55
2018-07-30T00:02:59.693Z,64.07
2018-07-30T00:05:12.324Z,63.09
2018-07-30T00:07:24.498Z,64.35
2018-07-30T00:09:36.709Z,64.10
2018-07-30T00:11:48.899Z,64.00
2018-07-30T00:14:01.107Z,64.77
2018-07-30T00:16:13.331Z,64.96
2018-07-30T00:18:25.523Z,65.40
2018-07-30T00:20:37.761Z,65.01
2018-07-30T00:22:49.943Z,65.28
2018-07-30T00:25:02.172Z,66.08
2018-07-30T00:27:14.350Z,65.71
2018-07-30T00:29:26.563Z,65.59
2018-07-30T00:31:38.711Z,66.31
2018-07-30T00:33:50.924Z,66.86
2018-07-30T00:36:03.167Z,66.88
2018-07-30T00:38:15.351Z,66.81
2018-07-30T00:40:27.608Z,67.45
2018-07-30T00:42:39.814Z,66.44
2018-07-30T00:44:52.038Z,66.97
2018-07-30T00:47:04.271Z,66.03
2018-07-30T00:49:16.436Z,66.20
2018-07-30T00:51:28.943Z,66.20
2018-07-30T00:53:41.158Z,66.12
2018-07-30T00:55:53.464Z,65.04
2018-07-30T00:58:05.691Z,65.41
2018-07-30T01:00:17.974Z,64.49
2018-07-30T01:02:30.207Z,65.67
2018-07-30T01:04:42.412Z,65.54
2018-07-30T01:06:54.696Z,65.60
2018-07-30T01:09:08.263Z,65.19
2018-07-30T01:11:20.544Z,65.53
2018-07-30T01:13:32.770Z,64.78
2018-07-30T01:15:44.963Z,65.49
2018-07-30T01:17:57.275Z,65.25
2018-07-30T01:20:09.456Z,66.00
2018-07-30T01:22:21.673Z,65.60
2018-07-30T01:24:33.865Z,66.91
2018-07-30T01:26:46.091Z,67.07
2018-07-30T01:28:59.080Z,66.41
2018-07-30T01:31:11.258Z,67.33
2018-07-30T01:33:23.522Z,67.72
2018-07-30T01:35:35.724Z,66.50
2018-07-30T01:37:47.926Z,66.68
2018-07-30T01:40:00.138Z,66.67
2018-07-30T01:42:12.306Z,66.99
2018-07-30T01:44:24.514Z,67.01
2018-07-30T01:46:36.706Z,66.80
2018-07-30T01:48:48.947Z,67.74
2018-07-30T01:51:01.159Z,66.99
2018-07-30T01:53:13.500Z,66.92
2018-07-30T01:55:25.763Z,67.60
2018-07-30T01:57:37.947Z,67.38
2018-07-30T01:59:50.157Z,67.22
2018-07-30T02:02:02.356Z,68.27
2018-07-30T02:04:14.590Z,67.38
2018-07-30T02:06:26.807Z,67.68
2018-07-30T02:08:39.041Z,68.01
2018-07-30T02:10:51.318Z,68.71
2018-07-30T02:13:03.547Z,69.62
2018-07-30T02:15:16.480Z,70.03
2018-07-30T02:17:28.654Z,69.43
2018-07-30T02:19:40.826Z,69.26
2018-07-30T02:21:53.027Z,69.69
2018-07-30T02:24:05.315Z,70.49
2018-07-30T02:26:17.515Z,70.06
2018-07-30T02:28:29.818Z,70.11
2018-07-30T02:30:42.007Z,69.61
2018-07-30T02:32:54.204Z,69.20
2018-07-30T02:35:07.406Z,69.42
2018-07-30T02:37:19.674Z,69.91
2018-07-30T02:39:31.886Z,69.78
2018-07-30T02:41:44.097Z,69.60
2018-07-30T02:43:56.282Z,69.67
2018-07-30T02:46:08.439Z,69.70
2018-07-30T02:48:20.639Z,69.35
2018-07-30T02:50:32.865Z,69.91
2018-07-30T02:52:45.072Z,70.73
2018-07-30T02:54:57.336Z,70.30
2018-07-30T02:57:09.540Z,70.57
2018-07-30T02:59:21.783Z,71.47
2018-07-30T03:01:33.998Z,71.81
2018-07-30T03:03:46.202Z,71.00
2018-07-30T03:05:58.388Z,71.03
2018-07-30T03:08:10.694Z,71.24
2018-07-30T03:10:22.875Z,70.95
2018-07-30T03:12:35.147Z,71.09
2018-07-30T03:14:47.333Z,71.58
2018-07-30T03:16:59.542Z,70.83
2018-07-30T03:19:11.763Z,70.95
2018-07-30T03:21:23.931Z,71.96
2018-07-30T03:23:36.127Z,71.12
2018-07-30T03:25:48.681Z,71.28
2018-07-30T03:28:00.919Z,71.49
2018-07-30T03:30:13.104Z,71.18
2018-07-30T03:32:25.329Z,71.82
2018-07-30T03:34:37.539Z,72.55
2018-07-30T03:36:49.763Z,72.24
2018-07-30T03:39:02.017Z,72.53
2018-07-30T03:41:14.226Z,72.26
2018-07-30T03:43:26.446Z,72.56
2018-07-30T03:45:38.627Z,73.45
2018-07-30T03:47:50.831Z,72.58
2018-07-30T03:50:03.180Z,72.52
2018-07-30T03:52:15.377Z,72.52
2018-07-30T03:54:27.577Z,73.37
2018-07-30T03:56:39.757Z,72.72
2018-07-30T03:58:52.522Z,72.61
2018-07-30T04:01:04.729Z,72.65
2018-07-30T04:03:16.966Z,72.79
2018-07-30T04:05:29.182Z,72.74
2018-07-30T04:07:41.403Z,72.93
2018-07-30T04:09:53.610Z,73.42
2018-07-30T04:12:05.959Z,72.91
2018-07-30T04:14:18.187Z,73.43
2018-07-30T04:16:34.366Z,73.25
2018-07-30T04:18:46.539Z,73.72
2018-07-30T04:20:58.767Z,74.03
2018-07-30T04:23:10.961Z,73.90
2018-07-30T04:25:23.190Z,74.14
2018-07-30T04:27:35.420Z,74.19
2018-07-30T04:29:47.651Z,74.42
2018-07-30T04:31:59.921Z,74.03
2018-07-30T04:34:12.144Z,72.93
2018-07-30T04:36:24.359Z,72.86
2018-07-30T04:38:36.567Z,73.34
2018-07-30T04:40:48.777Z,73.18
2018-07-30T04:43:01.213Z,73.06
2018-07-30T04:45:13.473Z,72.25
2018-07-30T04:47:25.700Z,72.00
2018-07-30T04:49:37.879Z,71.64
2018-07-30T04:51:50.099Z,72.06
2018-07-30T04:54:02.359Z,71.38
2018-07-30T04:56:14.549Z,71.36
2018-07-30T04:58:26.731Z,70.79
2018-07-30T05:00:39.023Z,71.04
2018-07-30T05:02:51.223Z,70.58
2018-07-30T05:05:04.184Z,70.89
2018-07-30T05:07:16.415Z,70.29
2018-07-30T05:09:28.582Z,69.69
2018-07-30T05:11:40.796Z,69.40
2018-07-30T05:13:52.968Z,69.83
2018-07-30T05:16:05.235Z,69.71
2018-07-30T05:18:17.655Z,69.51
2018-07-30T05:20:29.865Z,69.16
2018-07-30T05:22:42.083Z,69.22
2018-07-30T05:24:54.324Z,69.10
2018-07-30T05:27:06.512Z,68.55
2018-07-30T05:29:18.699Z,67.06
2018-07-30T05:31:31.019Z,66.98
2018-07-30T05:33:43.207Z,65.94
2018-07-30T05:35:55.401Z,66.11
2018-07-30T05:38:07.652Z,66.30
2018-07-30T05:40:19.815Z,65.01
2018-07-30T05:42:32.263Z,66.15
2018-07-30T05:44:44.511Z,65.53
2018-07-30T05:46:56.725Z,65.10
2018-07-30T05:49:09.003Z,63.59
2018-07-30T05:51:21.250Z,63.85
2018-07-30T05:53:33.504Z,62.92
2018-07-30T05:55:45.678Z,64.19
2018-07-30T05:57:58.153Z,63.01
2018-07-30T06:00:10.517Z,63.69
2018-07-30T06:02:22.894Z,62.53
2018-07-30T06:04:35.246Z,63.37
2018-07-30T06:06:48.768Z,62.94
2018-07-30T06:09:01.291Z,62.49
2018-07-30T06:11:13.846Z,61.15
2018-07-30T06:13:26.289Z,61.84
2018-07-30T06:15:38.499Z,62.24
2018-07-30T06:17:50.727Z,60.62
2018-07-30T06:20:03.664Z,60.86
2018-07-30T06:22:15.844Z,60.51
2018-07-30T06:24:28.039Z,59.79
2018-07-30T06:26:40.291Z,59.18
2018-07-30T06:28:52.511Z,59.20
2018-07-30T06:31:04.743Z,59.34
2018-07-30T06:33:16.970Z,58.65
2018-07-30T06:35:29.170Z,58.16
2018-07-30T06:37:41.355Z,59.48
2018-07-30T06:39:53.630Z,58.61
2018-07-30T06:42:05.844Z,59.19
2018-07-30T06:44:18.049Z,58.37
2018-07-30T06:46:30.294Z,59.25
2018-07-30T06:48:42.526Z,57.67
2018-07-30T06:50:54.767Z,57.58
2018-07-30T06:53:06.982Z,56.64
2018-07-30T06:55:19.296Z,56.55
2018-07-30T06:57:31.516Z,56.20
2018-07-30T06:59:43.712Z,57.37
2018-07-30T07:01:56.030Z,55.19
2018-07-30T07:04:08.462Z,55.76
2018-07-30T07:06:20.727Z,54.27
2018-07-30T07:08:32.927Z,55.07
2018-07-30T07:10:45.181Z,53.64
2018-07-30T07:12:57.389Z,51.92
2018-07-30T07:15:11.848Z,51.57
2018-07-30T07:17:24.060Z,51.85
2018-07-30T07:19:36.419Z,52.10
2018-07-30T07:21:48.674Z,51.83
2018-07-30T07:24:01.247Z,50.74
2018-07-30T07:26:13.510Z,49.10
2018-07-30T07:28:25.725Z,48.99
2018-07-30T07:30:37.980Z,49.97
2018-07-30T07:32:50.446Z,49.12
2018-07-30T07:35:02.851Z,48.52
2018-07-30T07:37:15.048Z,49.73
2018-07-30T07:39:27.514Z,49.22
2018-07-30T07:41:39.957Z,45.82
2018-07-30T07:43:52.271Z,47.42
2018-07-30T07:46:04.450Z,45.42
2018-07-30T07:48:16.755Z,45.39
2018-07-30T07:50:28.969Z,45.34
2018-07-30T07:52:41.187Z,46.76
2018-07-30T07:54:53.428Z,46.20
2018-07-30T07:57:05.694Z,45.49
2018-07-30T07:59:18.638Z,46.29
2018-07-30T08:01:31.046Z,45.54
2018-07-30T08:03:43.650Z,43.70
2018-07-30T08:05:55.909Z,43.77
2018-07-30T08:08:08.171Z,42.43
2018-07-30T08:10:20.447Z,42.57
2018-07-30T08:12:33.083Z,42.29
2018-07-30T08:14:45.569Z,41.92
2018-07-30T08:16:58.384Z,42.45
2018-07-30T08:19:10.961Z,42.78
2018-07-30T08:21:23.260Z,42.35
2018-07-30T08:23:35.503Z,41.71
2018-07-30T08:25:47.769Z,42.67
2018-07-30T08:27:59.991Z,40.31
2018-07-30T08:30:12.308Z,42.64
2018-07-30T08:32:24.522Z,42.28
2018-07-30T08:34:36.743Z,42.15
2018-07-30T08:36:49.092Z,39.74
2018-07-30T08:39:01.275Z,40.47
2018-07-30T08:41:13.591Z,38.28
2018-07-30T08:43:25.859Z,42.11
2018-07-30T08:45:38.155Z,41.22
2018-07-30T08:47:50.498Z,40.23
2018-07-30T08:50:03.135Z,40.25
2018-07-30T08:52:15.390Z,37.89
2018-07-30T08:54:27.643Z,39.09
2018-07-30T08:56:39.860Z,37.20
2018-07-30T08:58:52.412Z,37.81
2018-07-30T09:01:04.690Z,37.92
2018-07-30T09:03:16.938Z,37.33
2018-07-30T09:05:29.179Z,38.16
2018-07-30T09:07:41.407Z,37.03
2018-07-30T09:09:53.775Z,37.14
2018-07-30T09:12:06.051Z,35.98
2018-07-30T09:14:18.278Z,36.04
2018-07-30T09:16:30.508Z,36.73
2018-07-30T09:18:42.723Z,37.31
2018-07-30T09:20:54.979Z,35.91
2018-07-30T09:23:07.188Z,35.19
2018-07-30T09:25:19.366Z,36.49
2018-07-30T09:27:31.619Z,37.38
2018-07-30T09:29:43.817Z,36.20
2018-07-30T09:31:56.129Z,34.76
2018-07-30T09:34:08.640Z,33.61
2018-07-30T09:36:22.658Z,34.37
2018-07-30T09:38:35.034Z,33.16
2018-07-30T09:40:47.253Z,32.61
2018-07-30T09:42:59.483Z,34.17
2018-07-30T09:45:11.713Z,33.30
2018-07-30T09:47:23.922Z,33.83
2018-07-30T09:49:36.150Z,34.81
2018-07-30T09:51:48.415Z,35.43
2018-07-30T09:54:00.631Z,34.25
2018-07-30T09:56:12.895Z,33.34
2018-07-30T09:58:25.092Z,34.53
2018-07-30T10:00:42.994Z,33.15
2018-07-30T10:02:55.287Z,31.60
2018-07-30T10:05:07.577Z,33.56
2018-07-30T10:07:19.782Z,33.40
2018-07-30T10:09:32.039Z,31.88
2018-07-30T10:11:44.312Z,32.38
2018-07-30T10:13:56.522Z,33.88
2018-07-30T10:16:08.714Z,32.38
2018-07-30T10:18:21.059Z,31.97
2018-07-30T10:20:33.234Z,33.04
2018-07-30T10:22:45.491Z,33.24
2018-07-30T10:24:57.759Z,32.19
2018-07-30T10:27:09.951Z,32.44
2018-07-30T10:29:22.209Z,32.50
2018-07-30T10:31:34.434Z,31.79
2018-07-30T10:33:46.665Z,31.81
2018-07-30T10:35:58.963Z,31.49
2018-07-30T10:38:11.206Z,30.41
2018-07-30T10:40:23.431Z,29.13
2018-07-30T10:42:35.666Z,33.21
2018-07-30T10:44:47.899Z,31.88
2018-07-30T10:47:00.131Z,31.20
2018-07-30T10:49:12.351Z,29.89
2018-07-30T10:51:24.559Z,29.74
2018-07-30T10:53:36.769Z,29.15
2018-07-30T10:55:48.982Z,29.37
2018-07-30T10:58:01.179Z,29.32
2018-07-30T11:00:13.457Z,29.87
2018-07-30T11:02:25.660Z,32.30
2018-07-30T11:04:39.650Z,29.72
2018-07-30T11:06:51.845Z,30.62
2018-07-30T11:09:06.846Z,30.67
2018-07-30T11:11:19.122Z,30.95
2018-07-30T11:13:31.328Z,29.67
2018-07-30T11:15:43.564Z,30.96
2018-07-30T11:17:55.830Z,31.88
2018-07-30T11:20:08.028Z,27.17
2018-07-30T11:22:20.255Z,28.57
2018-07-30T11:24:33.082Z,30.17
2018-07-30T11:26:45.358Z,29.65
2018-07-30T11:28:57.579Z,29.14
2018-07-30T11:31:09.802Z,30.80
2018-07-30T11:33:22.054Z,30.44
2018-07-30T11:35:34.642Z,28.15
2018-07-30T11:37:46.893Z,31.37
2018-07-30T11:39:59.112Z,28.29
2018-07-30T11:42:11.332Z,29.41
2018-07-30T11:44:23.588Z,29.90
2018-07-30T11:46:35.807Z,30.99
2018-07-30T11:48:48.084Z,30.55
2018-07-30T11:51:01.052Z,30.51
2018-07-30T11:53:13.316Z,28.39
2018-07-30T11:55:25.766Z,30.63
2018-07-30T11:57:37.994Z,30.79
2018-07-30T11:59:50.229Z,29.69
2018-07-30T12:02:02.526Z,29.51
2018-07-30T12:04:14.794Z,29.36
2018-07-30T12:06:27.053Z,30.95
2018-07-30T12:08:39.318Z,28.21
2018-07-30T12:10:51.863Z,28.80
2018-07-30T12:13:04.090Z,28.33
2018-07-30T12:15:16.341Z,29.42
2018-07-30T12:17:28.562Z,29.01
2018-07-30T12:19:40.887Z,29.96
2018-07-30T12:21:53.220Z,27.88
2018-07-30T12:24:05.459Z,27.76
2018-07-30T12:26:17.769Z,28.16
2018-07-30T12:28:29.995Z,26.77
2018-07-30T12:30:42.286Z,27.39
2018-07-30T12:32:54.455Z,27.38
2018-07-30T12:35:06.701Z,27.73
2018-07-30T12:37:18.922Z,27.96
2018-07-30T12:39:31.208Z,26.83
2018-07-30T12:41:43.412Z,26.81
2018-07-30T12:43:55.611Z,26.86
2018-07-30T12:46:07.903Z,28.46
2018-07-30T12:48:20.146Z,28.45
2018-07-30T12:50:32.502Z,28.60
2018-07-30T12:52:44.699Z,28.88
2018-07-30T12:54:56.924Z,28.08
2018-07-30T12:57:09.145Z,28.04
2018-07-30T12:59:21.338Z,28.19
2018-07-30T13:01:33.583Z,30.12
2018-07-30T13:03:45.876Z,29.10
2018-07-30T13:05:58.181Z,29.19
2018-07-30T13:08:10.467Z,29.31
2018-07-30T13:10:22.702Z,30.90
2018-07-30T13:12:34.914Z,28.92
2018-07-30T13:14:47.159Z,29.09
2018-07-30T13:16:59.396Z,28.44
2018-07-30T13:19:11.631Z,28.80
2018-07-30T13:21:23.871Z,29.06
2018-07-30T13:23:36.091Z,29.29
2018-07-30T13:25:48.287Z,29.07
2018-07-30T13:28:00.566Z,30.03
2018-07-30T13:30:12.811Z,30.14
2018-07-30T13:32:25.020Z,28.62
2018-07-30T13:34:37.231Z,30.61
2018-07-30T13:36:49.467Z,31.20
2018-07-30T13:39:01.700Z,28.79
2018-07-30T13:41:13.979Z,29.86
2018-07-30T13:43:26.224Z,30.70
2018-07-30T13:45:38.409Z,29.33
2018-07-30T13:47:50.636Z,29.09
2018-07-30T13:50:03.053Z,28.25
2018-07-30T13:52:15.282Z,29.66
2018-07-30T13:54:27.555Z,27.45
2018-07-30T13:56:39.737Z,29.48
2018-07-30T13:58:51.922Z,28.93
2018-07-30T14:01:04.319Z,27.51
2018-07-30T14:03:16.551Z,28.02
2018-07-30T14:05:28.791Z,28.06
2018-07-30T14:07:41.038Z,28.93
2018-07-30T14:09:53.330Z,29.41
2018-07-30T14:12:05.871Z,29.36
2018-07-30T14:14:18.076Z,30.24
2018-07-30T14:16:30.420Z,30.19
2018-07-30T14:18:42.638Z,29.50
2018-07-30T14:20:54.956Z,29.85
2018-07-30T14:23:07.271Z,30.94
2018-07-30T14:25:19.511Z,29.95
2018-07-30T14:27:31.782Z,31.32
2018-07-30T14:29:44.015Z,29.36
2018-07-30T14:31:56.240Z,30.44
2018-07-30T14:34:08.524Z,30.26
2018-07-30T14:36:20.777Z,29.36
2018-07-30T14:38:33.016Z,30.22
2018-07-30T14:40:45.300Z,30.91
2018-07-30T14:42:57.516Z,31.15
2018-07-30T14:45:09.717Z,30.68
2018-07-30T14:47:21.970Z,30.22
2018-07-30T14:49:34.204Z,29.02
2018-07-30T14:51:46.477Z,29.05
2018-07-30T14:53:58.694Z,29.22
2018-07-30T14:56:10.963Z,30.41
2018-07-30T14:58:23.322Z,30.12
2018-07-30T15:00:35.530Z,29.41
2018-07-30T15:02:47.769Z,30.35
2018-07-30T15:05:00.015Z,29.21
2018-07-30T15:07:12.331Z,29.87
2018-07-30T15:09:24.527Z,29.56
2018-07-30T15:11:37.247Z,28.79
2018-07-30T15:13:49.609Z,28.85
2018-07-30T15:16:01.817Z,30.11
2018-07-30T15:18:14.754Z,29.19
2018-07-30T15:20:27.015Z,28.81
2018-07-30T15:22:39.231Z,29.30
2018-07-30T15:24:51.553Z,29.00
2018-07-30T15:27:03.808Z,28.25
2018-07-30T15:29:16.024Z,29.29
2018-07-30T15:31:28.222Z,30.07
2018-07-30T15:33:40.480Z,28.61
2018-07-30T15:35:52.695Z,28.54
2018-07-30T15:38:04.919Z,30.76
2018-07-30T15:40:17.150Z,28.87
2018-07-30T15:42:29.400Z,29.76
2018-07-30T15:44:41.659Z,29.36
2018-07-30T15:46:53.942Z,29.21
2018-07-30T15:49:06.106Z,29.50
2018-07-30T15:51:18.336Z,29.99
2018-07-30T15:53:30.598Z,29.04
2018-07-30T15:55:42.820Z,29.97
2018-07-30T15:57:55.023Z,28.94
2018-07-30T16:00:07.953Z,30.19
2018-07-30T16:06:56.273Z,29.02
2018-07-30T16:09:08.466Z,29.39
2018-07-30T16:11:20.750Z,29.24
2018-07-30T16:13:32.996Z,29.77
2018-07-30T16:15:45.236Z,30.36
2018-07-30T16:17:57.510Z,29.51
2018-07-30T16:20:09.770Z,28.85
2018-07-30T16:22:21.958Z,30.22
2018-07-30T16:24:34.199Z,29.63
2018-07-30T16:26:46.427Z,30.27
2018-07-30T16:28:58.666Z,29.10
2018-07-30T16:31:10.851Z,29.17
2018-07-30T16:33:23.101Z,29.47
2018-07-30T16:35:35.310Z,29.55
2018-07-30T16:37:47.512Z,30.26
2018-07-30T16:39:59.759Z,29.50
2018-07-30T16:42:12.062Z,30.69
2018-07-30T16:44:24.368Z,30.54
2018-07-30T16:46:36.574Z,29.43
2018-07-30T16:48:48.883Z,29.94
2018-07-30T16:51:01.170Z,29.64
2018-07-30T16:55:31.362Z,30.17
2018-07-30T16:57:43.598Z,30.04
2018-07-30T16:59:55.847Z,30.61
2018-07-30T17:02:08.158Z,30.25
2018-07-30T17:04:20.429Z,30.50
2018-07-30T17:06:32.657Z,31.25
2018-07-30T17:08:44.920Z,29.78
2018-07-30T17:10:57.127Z,29.68
2018-07-30T17:13:09.371Z,29.70
2018-07-30T17:15:21.611Z,29.72
2018-07-30T17:17:33.821Z,29.50
2018-07-30T17:19:46.031Z,30.41
2018-07-30T17:21:58.269Z,29.70
2018-07-30T17:24:10.465Z,29.83
2018-07-30T17:26:22.750Z,29.19
2018-07-30T17:28:35.224Z,29.81
2018-07-30T17:30:47.688Z,31.15
2018-07-30T17:33:00.022Z,30.90
2018-07-30T17:35:12.304Z,30.81
2018-07-30T17:37:24.570Z,29.57
2018-07-30T17:39:37.155Z,30.57
2018-07-30T17:41:49.745Z,30.80
2018-07-30T17:44:02.352Z,29.91
2018-07-30T17:46:14.678Z,30.47
2018-07-30T17:48:27.181Z,29.57
2018-07-30T17:50:39.751Z,30.40
2018-07-30T17:52:52.323Z,29.74
2018-07-30T17:55:04.879Z,29.70
2018-07-30T17:57:17.446Z,29.87
2018-07-30T17:59:29.766Z,30.18
2018-07-30T18:01:42.112Z,30.39
2018-07-30T18:03:54.432Z,31.46
2018-07-30T18:06:06.699Z,30.62
2018-07-30T18:08:18.942Z,30.92
2018-07-30T18:10:31.204Z,31.96
2018-07-30T18:12:43.644Z,36.62
2018-07-30T18:14:55.890Z,38.19
2018-07-30T18:17:08.147Z,39.57
2018-07-30T18:19:20.447Z,39.79
2018-07-30T18:21:32.742Z,40.09
2018-07-30T18:23:44.961Z,40.42
2018-07-30T18:25:57.241Z,40.78
2018-07-30T18:28:09.546Z,41.64
2018-07-30T18:30:21.781Z,41.51
2018-07-30T18:32:34.039Z,42.37
2018-07-30T18:34:46.343Z,42.64
2018-07-30T18:36:58.593Z,43.20
2018-07-30T18:39:10.846Z,43.23
2018-07-30T18:41:23.050Z,44.22
2018-07-30T18:43:35.322Z,44.07
2018-07-30T18:45:47.539Z,43.99
2018-07-30T18:47:59.812Z,43.50
2018-07-30T18:50:12.030Z,43.39
2018-07-30T18:52:24.324Z,44.01
2018-07-30T18:54:36.678Z,43.81
2018-07-30T18:56:48.904Z,44.51
2018-07-30T18:59:01.166Z,44.50
2018-07-30T19:01:13.391Z,45.41
2018-07-30T19:03:25.682Z,45.57
2018-07-30T19:05:38.053Z,45.54
2018-07-30T19:07:50.402Z,45.73
2018-07-30T19:10:02.970Z,46.09
2018-07-30T19:12:15.171Z,46.98
2018-07-30T19:14:27.619Z,47.15
2018-07-30T19:16:39.942Z,46.80
2018-07-30T19:18:52.431Z,47.17
2018-07-30T19:21:04.974Z,47.60
2018-07-30T19:23:17.214Z,47.87
2018-07-30T19:25:29.436Z,47.53
2018-07-30T19:27:41.907Z,48.26
2018-07-30T19:29:54.469Z,48.62
2018-07-30T19:32:06.710Z,47.83
2018-07-30T19:34:18.945Z,48.64
2018-07-30T19:36:31.189Z,48.98
2018-07-30T19:38:43.734Z,48.47
2018-07-30T19:40:56.281Z,48.14
2018-07-30T19:43:08.567Z,48.35
2018-07-30T19:45:21.070Z,48.54
2018-07-30T19:47:33.551Z,48.47
2018-07-30T19:49:45.996Z,47.53
2018-07-30T19:51:58.251Z,48.61
2018-07-30T19:54:10.566Z,48.53
2018-07-30T19:56:22.842Z,49.79
2018-07-30T19:58:35.526Z,49.08
2018-07-30T20:00:47.820Z,49.85
2018-07-30T20:03:00.125Z,48.32
2018-07-30T20:05:12.630Z,47.97
2018-07-30T20:07:25.238Z,47.59
2018-07-30T20:09:37.750Z,48.49
2018-07-30T20:11:50.276Z,49.05
2018-07-30T20:14:02.564Z,48.88
2018-07-30T20:16:15.079Z,49.00
2018-07-30T20:18:27.351Z,48.75
2018-07-30T20:20:39.829Z,48.60
2018-07-30T20:22:52.372Z,48.93
2018-07-30T20:25:05.477Z,48.04
2018-07-30T20:27:17.770Z,48.11
2018-07-30T20:29:29.998Z,48.21
2018-07-30T20:31:42.471Z,46.95
2018-07-30T20:33:56.407Z,47.54
2018-07-30T20:36:08.637Z,48.22
2018-07-30T20:38:20.850Z,48.49
2018-07-30T20:40:33.059Z,49.32
2018-07-30T20:42:45.261Z,49.57
2018-07-30T20:44:57.563Z,48.66
2018-07-30T20:47:09.739Z,49.80
2018-07-30T20:49:22.050Z,49.98
2018-07-30T20:51:34.239Z,49.25
2018-07-30T20:53:46.493Z,49.20
2018-07-30T20:55:58.720Z,48.91
2018-07-30T20:58:10.958Z,50.03
2018-07-30T21:00:23.168Z,50.11
2018-07-30T21:02:35.424Z,50.24
2018-07-30T21:04:47.670Z,50.86
2018-07-30T21:06:59.895Z,49.95
2018-07-30T21:09:12.107Z,49.49
2018-07-30T21:11:24.350Z,49.64
2018-07-30T21:13:36.555Z,49.55
2018-07-30T21:15:48.838Z,48.54
2018-07-30T21:18:01.117Z,49.15
2018-07-30T21:20:13.377Z,48.91
2018-07-30T21:22:25.584Z,48.19
2018-07-30T21:24:37.838Z,49.09
2018-07-30T21:26:50.044Z,49.52
2018-07-30T21:29:02.304Z,49.01
2018-07-30T21:31:14.533Z,48.76
2018-07-30T21:33:26.880Z,49.97
2018-07-30T21:35:39.086Z,50.09
2018-07-30T21:37:51.578Z,49.64
2018-07-30T21:40:04.255Z,49.26
2018-07-30T21:42:16.486Z,50.42
2018-07-30T21:44:28.704Z,50.70
2018-07-30T21:46:41.924Z,50.82
2018-07-30T21:48:54.171Z,50.46
2018-07-30T21:51:06.607Z,50.77
2018-07-30T21:53:18.848Z,51.54
2018-07-30T21:55:31.455Z,51.87
2018-07-30T21:57:43.669Z,51.14
2018-07-30T21:59:55.960Z,51.05
2018-07-30T22:02:08.162Z,51.13
2018-07-30T22:04:20.410Z,52.79
2018-07-30T22:06:32.679Z,52.90
2018-07-30T22:08:45.000Z,52.60
2018-07-30T22:10:57.234Z,53.17
2018-07-30T22:13:09.434Z,51.93
2018-07-30T22:15:22.126Z,51.82
2018-07-30T22:17:34.419Z,51.21
2018-07-30T22:19:46.619Z,52.26
2018-07-30T22:21:58.824Z,51.70
2018-07-30T22:24:11.075Z,52.08
2018-07-30T22:26:23.332Z,52.58
2018-07-30T22:28:35.527Z,51.63
2018-07-30T22:30:47.817Z,52.64
2018-07-30T22:33:00.030Z,51.72
2018-07-30T22:35:12.256Z,52.03
2018-07-30T22:37:24.473Z,51.81
2018-07-30T22:39:36.711Z,51.89
2018-07-30T22:41:48.983Z,52.74
2018-07-30T22:44:01.226Z,53.45
2018-07-30T22:46:13.434Z,54.28
2018-07-30T22:48:25.623Z,54.18
2018-07-30T22:50:37.889Z,54.74
2018-07-30T22:52:50.571Z,55.07
2018-07-30T22:55:02.867Z,55.11
2018-07-30T22:57:15.078Z,55.59
2018-07-30T22:59:27.327Z,55.35
2018-07-30T23:01:39.644Z,56.14
2018-07-30T23:03:51.924Z,55.49
2018-07-30T23:06:04.171Z,55.90
2018-07-30T23:08:16.359Z,56.65
2018-07-30T23:10:28.806Z,57.10
2018-07-30T23:12:41.143Z,56.93
2018-07-30T23:14:53.355Z,56.50
2018-07-30T23:17:05.527Z,56.40
2018-07-30T23:19:17.735Z,56.06
2018-07-30T23:21:30.104Z,56.81
2018-07-30T23:23:42.331Z,56.49
2018-07-30T23:25:54.544Z,56.39
2018-07-30T23:28:06.731Z,56.59
2018-07-30T23:30:18.954Z,56.30
2018-07-30T23:32:31.157Z,56.75
2018-07-30T23:34:43.369Z,56.41
2018-07-30T23:36:55.606Z,56.11
2018-07-30T23:39:09.574Z,56.53
2018-07-30T23:41:21.821Z,56.70
2018-07-30T23:43:34.003Z,57.08
2018-07-30T23:45:46.191Z,57.76
2018-07-30T23:47:58.394Z,57.92
2018-07-30T23:50:10.594Z,57.95
2018-07-30T23:52:22.895Z,57.11
2018-07-30T23:54:35.119Z,57.56
2018-07-30T23:56:47.391Z,56.90
2018-07-30T23:58:59.589Z,58.03
